createdAt,value
2022-11-05T00:01:50.557Z,2.80
2022-11-05T00:04:36.956Z,2.00
2022-11-05T00:07:30.387Z,2.00
2022-11-05T00:10:03.853Z,2.50
2022-11-05T00:12:52.082Z,2.33
2022-11-05T00:15:37.771Z,2.77
2022-11-05T00:18:06.353Z,2.33
2022-11-05T00:20:34.840Z,2.10
2022-11-05T00:23:23.637Z,2.60
2022-11-05T00:26:14.131Z,2.40
2022-11-05T00:28:46.001Z,2.30
2022-11-05T00:31:15.561Z,2.50
2022-11-05T00:33:45.083Z,2.20
2022-11-05T00:36:13.443Z,1.80
2022-11-05T00:38:41.998Z,2.50
2022-11-05T00:41:11.657Z,1.77
2022-11-05T00:43:57.338Z,2.17
2022-11-05T00:46:27.275Z,2.23
2022-11-05T00:49:15.906Z,2.43
2022-11-05T00:51:44.075Z,3.20
2022-11-05T00:54:12.459Z,2.20
2022-11-05T00:56:40.856Z,2.00
2022-11-05T00:59:09.014Z,2.10
2022-11-05T01:01:39.411Z,2.47
2022-11-05T01:04:07.664Z,2.47
2022-11-05T01:06:35.804Z,2.50
2022-11-05T01:09:04.026Z,2.40
2022-11-05T01:11:35.433Z,2.17
2022-11-05T01:14:06.368Z,2.60
2022-11-05T01:16:34.616Z,2.00
2022-11-05T01:19:05.672Z,2.20
2022-11-05T01:21:34.623Z,2.00
2022-11-05T01:24:03.569Z,2.60
2022-11-05T01:26:32.308Z,1.93
2022-11-05T01:29:01.832Z,2.50
2022-11-05T01:31:30.126Z,2.37
2022-11-05T01:33:58.690Z,2.63
2022-11-05T01:36:28.313Z,2.03
2022-11-05T01:38:56.878Z,2.00
2022-11-05T01:41:24.992Z,2.10
2022-11-05T01:43:55.161Z,2.67
2022-11-05T01:46:30.034Z,2.03
2022-11-05T01:49:03.362Z,2.30
2022-11-05T01:51:33.538Z,2.40
2022-11-05T01:54:04.366Z,2.53
2022-11-05T01:56:38.105Z,2.03
2022-11-05T01:59:12.987Z,1.90
2022-11-05T02:01:41.227Z,2.30
2022-11-05T02:04:12.861Z,2.10
2022-11-05T02:06:46.477Z,2.30
2022-11-05T02:09:19.429Z,1.97
2022-11-05T02:11:49.555Z,2.00
2022-11-05T02:14:18.407Z,2.10
2022-11-05T02:16:52.320Z,2.13
2022-11-05T02:19:53.297Z,2.00
2022-11-05T02:22:48.916Z,1.97
2022-11-05T02:25:37.221Z,2.20
2022-11-05T02:28:30.106Z,1.83
2022-11-05T02:31:06.175Z,2.90
2022-11-05T02:33:43.114Z,1.70
2022-11-05T02:36:28.505Z,2.10
2022-11-05T02:39:07.240Z,2.00
2022-11-05T02:41:44.670Z,2.43
2022-11-05T02:44:23.442Z,1.73
2022-11-05T02:47:00.015Z,1.97
2022-11-05T02:49:39.480Z,1.77
2022-11-05T02:52:14.833Z,1.80
2022-11-05T02:54:49.013Z,2.13
2022-11-05T02:57:20.581Z,1.90
2022-11-05T02:59:48.821Z,2.07
2022-11-05T03:02:18.850Z,1.83
2022-11-05T03:04:47.420Z,2.10
2022-11-05T03:07:29.737Z,2.23
2022-11-05T03:10:20.915Z,5.13
2022-11-05T03:13:01.046Z,1.60
2022-11-05T03:15:41.885Z,1.43
2022-11-05T03:18:16.196Z,1.70
2022-11-05T03:20:50.822Z,1.90
2022-11-05T03:23:26.858Z,1.70
2022-11-05T03:26:00.699Z,2.00
2022-11-05T03:28:32.475Z,1.60
2022-11-05T03:31:02.848Z,3.13
2022-11-05T03:33:36.836Z,1.50
2022-11-05T03:36:11.669Z,1.50
2022-11-05T03:38:45.063Z,2.10
2022-11-05T03:41:17.348Z,1.50
2022-11-05T03:43:50.805Z,1.37
2022-11-05T03:46:23.009Z,1.50
2022-11-05T03:48:56.313Z,1.70
2022-11-05T03:51:34.232Z,1.60
2022-11-05T03:54:05.511Z,1.43
2022-11-05T03:56:39.771Z,1.73
2022-11-05T03:59:10.306Z,1.33
2022-11-05T04:01:39.104Z,1.23
2022-11-05T04:04:09.736Z,1.40
2022-11-05T04:06:55.386Z,1.60
2022-11-05T04:09:40.989Z,1.50
2022-11-05T04:12:28.091Z,1.90
2022-11-05T04:14:56.245Z,1.37
2022-11-05T04:17:23.414Z,1.37
2022-11-05T04:20:10.534Z,1.17
2022-11-05T04:22:56.322Z,1.57
2022-11-05T04:25:24.502Z,1.83
2022-11-05T04:27:52.712Z,1.43
2022-11-05T04:30:20.616Z,1.40
2022-11-05T04:33:03.606Z,1.70
2022-11-05T04:35:35.527Z,1.80
2022-11-05T04:38:04.919Z,1.37
2022-11-05T04:40:32.983Z,1.37
2022-11-05T04:43:01.559Z,1.43
2022-11-05T04:45:31.376Z,1.30
2022-11-05T04:47:59.480Z,1.33
2022-11-05T04:50:27.864Z,1.10
2022-11-05T04:52:57.417Z,1.00
2022-11-05T04:55:25.736Z,1.87
2022-11-05T04:57:55.322Z,1.30
2022-11-05T05:00:25.444Z,1.37
2022-11-05T05:02:53.531Z,1.17
2022-11-05T05:05:23.389Z,3.53
2022-11-05T05:07:51.503Z,1.50
2022-11-05T05:10:21.131Z,1.17
2022-11-05T05:12:49.291Z,1.33
2022-11-05T05:15:17.559Z,1.17
2022-11-05T05:17:45.652Z,1.33
2022-11-05T05:20:31.097Z,1.57
2022-11-05T05:22:59.093Z,1.30
2022-11-05T05:25:29.005Z,1.60
2022-11-05T05:27:59.078Z,1.40
2022-11-05T05:30:27.507Z,1.00
2022-11-05T05:32:55.555Z,1.43
2022-11-05T05:35:23.599Z,3.07
2022-11-05T05:37:56.223Z,1.50
2022-11-05T05:40:25.440Z,1.33
2022-11-05T05:42:56.545Z,1.37
2022-11-05T05:45:24.848Z,1.43
2022-11-05T05:47:53.225Z,1.17
2022-11-05T05:50:21.264Z,1.60
2022-11-05T05:52:49.364Z,1.23
2022-11-05T05:55:20.710Z,1.53
2022-11-05T05:57:48.862Z,1.80
2022-11-05T06:00:18.786Z,1.47
2022-11-05T06:02:47.275Z,1.50
2022-11-05T06:05:15.635Z,1.77
2022-11-05T06:07:43.729Z,1.53
2022-11-05T06:10:11.830Z,1.87
2022-11-05T06:12:40.004Z,1.83
2022-11-05T06:15:08.997Z,1.97
2022-11-05T06:17:38.553Z,1.60
2022-11-05T06:20:09.044Z,1.63
2022-11-05T06:22:37.164Z,1.90
2022-11-05T06:25:06.222Z,1.67
2022-11-05T06:27:34.830Z,1.40
2022-11-05T06:30:03.031Z,1.43
2022-11-05T06:32:31.944Z,1.53
2022-11-05T06:35:01.641Z,2.17
2022-11-05T06:37:29.807Z,1.47
2022-11-05T06:39:59.079Z,1.60
2022-11-05T06:42:28.263Z,1.60
2022-11-05T06:44:56.264Z,1.50
2022-11-05T06:47:24.347Z,1.50
2022-11-05T06:49:52.433Z,1.53
2022-11-05T06:52:22.465Z,1.93
2022-11-05T06:54:50.788Z,1.70
2022-11-05T06:57:19.126Z,1.77
2022-11-05T06:59:47.287Z,1.70
2022-11-05T07:02:15.722Z,1.53
2022-11-05T07:04:43.840Z,1.97
2022-11-05T07:07:11.949Z,1.37
2022-11-05T07:09:43.295Z,1.63
2022-11-05T07:12:11.260Z,1.50
2022-11-05T07:14:39.485Z,1.23
2022-11-05T07:17:08.254Z,1.63
2022-11-05T07:19:36.458Z,1.77
2022-11-05T07:22:04.776Z,1.37
2022-11-05T07:24:32.905Z,2.00
2022-11-05T07:27:02.362Z,1.67
2022-11-05T07:29:30.576Z,2.00
2022-11-05T07:31:58.636Z,1.53
2022-11-05T07:34:29.351Z,1.50
2022-11-05T07:36:57.410Z,1.53
2022-11-05T07:39:25.764Z,1.60
2022-11-05T07:41:55.094Z,0.97
2022-11-05T07:44:24.728Z,1.30
2022-11-05T07:46:53.116Z,1.37
2022-11-05T07:49:21.103Z,1.47
2022-11-05T07:51:49.209Z,1.27
2022-11-05T07:54:17.354Z,1.17
2022-11-05T07:56:48.240Z,1.50
2022-11-05T07:59:16.485Z,1.63
2022-11-05T08:01:46.109Z,1.50
2022-11-05T08:04:14.336Z,1.20
2022-11-05T08:06:42.563Z,1.50
2022-11-05T08:09:10.952Z,1.47
2022-11-05T08:11:39.039Z,1.93
2022-11-05T08:14:09.977Z,1.23
2022-11-05T08:16:40.943Z,3.37
2022-11-05T08:19:10.694Z,1.57
2022-11-05T08:21:38.856Z,1.83
2022-11-05T08:24:10.242Z,1.40
2022-11-05T08:26:38.613Z,1.63
2022-11-05T08:29:07.510Z,1.70
2022-11-05T08:31:37.230Z,1.37
2022-11-05T08:34:05.389Z,1.97
2022-11-05T08:36:36.434Z,1.37
2022-11-05T08:39:04.787Z,1.30
2022-11-05T08:41:33.895Z,1.30
2022-11-05T08:44:06.859Z,1.63
2022-11-05T08:46:41.395Z,1.37
2022-11-05T08:49:10.311Z,1.37
2022-11-05T08:51:40.143Z,2.40
2022-11-05T08:54:08.495Z,1.10
2022-11-05T08:56:36.805Z,0.90
2022-11-05T08:59:04.920Z,1.00
2022-11-05T09:01:34.603Z,1.50
2022-11-05T09:04:02.755Z,1.07
2022-11-05T09:06:30.840Z,1.27
2022-11-05T09:09:00.249Z,0.90
2022-11-05T09:11:49.718Z,1.40
2022-11-05T09:14:16.528Z,1.17
2022-11-05T09:16:44.534Z,1.00
2022-11-05T09:21:55.179Z,0.93
2022-11-05T09:24:25.069Z,7.40
2022-11-05T09:26:53.648Z,1.73
2022-11-05T09:29:21.916Z,1.30
2022-11-05T09:31:50.195Z,1.20
2022-11-05T09:34:18.264Z,1.40
2022-11-05T09:36:46.474Z,1.40
2022-11-05T09:39:14.818Z,1.43
2022-11-05T09:41:45.284Z,2.63
2022-11-05T09:44:17.082Z,0.87
2022-11-05T09:46:47.948Z,0.77
2022-11-05T09:49:25.806Z,2.30
2022-11-05T09:51:55.459Z,12.27
2022-11-05T09:54:26.067Z,0.90
2022-11-05T09:56:57.014Z,1.13
2022-11-05T09:59:29.642Z,0.70
2022-11-05T10:02:04.319Z,1.00
2022-11-05T10:04:35.749Z,1.20
2022-11-05T10:07:07.765Z,0.80
2022-11-05T10:09:40.215Z,0.93
2022-11-05T10:12:17.977Z,0.70
2022-11-05T10:14:52.890Z,0.80
2022-11-05T10:17:26.098Z,0.50
2022-11-05T10:20:01.840Z,1.00
2022-11-05T10:25:19.942Z,0.60
2022-11-05T10:31:22.205Z,1.00
2022-11-05T10:34:15.870Z,0.80
2022-11-05T10:37:48.802Z,1.03
2022-11-05T10:40:56.265Z,0.90
2022-11-05T10:43:33.798Z,1.10
2022-11-05T10:47:09.699Z,0.80
2022-11-05T10:49:53.715Z,1.07
2022-11-05T10:52:25.561Z,0.80
2022-11-05T10:55:03.352Z,1.00
2022-11-05T10:57:36.563Z,0.80
2022-11-05T11:00:28.571Z,0.40
2022-11-05T11:03:01.468Z,0.77
2022-11-05T11:05:32.901Z,0.80
2022-11-05T11:08:18.823Z,0.70
2022-11-05T11:10:53.285Z,0.73
2022-11-05T11:13:23.642Z,0.70
2022-11-05T11:15:52.009Z,0.50
2022-11-05T11:18:32.465Z,0.60
2022-11-05T11:21:08.788Z,0.60
2022-11-05T11:23:41.229Z,0.47
2022-11-05T11:26:13.263Z,0.40
2022-11-05T11:28:57.867Z,0.50
2022-11-05T11:31:31.213Z,0.50
2022-11-05T11:34:05.961Z,0.40
2022-11-05T11:37:20.752Z,0.30
2022-11-05T11:39:53.774Z,0.27
2022-11-05T11:42:49.092Z,0.53
2022-11-05T11:45:25.563Z,0.20
2022-11-05T11:47:57.682Z,0.30
2022-11-05T11:50:38.912Z,0.20
2022-11-05T11:53:36.832Z,0.40
2022-11-05T11:56:19.747Z,0.60
2022-11-05T11:58:57.146Z,0.43
2022-11-05T12:01:43.923Z,0.30
2022-11-05T12:04:24.453Z,0.63
2022-11-05T12:07:03.581Z,0.60
2022-11-05T12:10:00.785Z,0.50
2022-11-05T12:12:38.232Z,0.87
2022-11-05T12:15:49.180Z,0.37
2022-11-05T12:18:26.326Z,0.43
2022-11-05T12:21:34.847Z,0.80
2022-11-05T12:24:27.560Z,0.53
2022-11-05T12:27:16.048Z,1.00
2022-11-05T12:29:54.872Z,0.70
2022-11-05T12:32:57.509Z,0.50
2022-11-05T12:35:47.435Z,0.40
2022-11-05T12:38:45.767Z,0.40
2022-11-05T12:41:27.044Z,0.40
2022-11-05T12:44:31.272Z,0.80
2022-11-05T12:47:14.847Z,0.60
2022-11-05T12:50:01.358Z,0.30
2022-11-05T12:52:55.695Z,1.20
2022-11-05T12:55:26.643Z,1.30
2022-11-05T12:57:59.379Z,0.70
2022-11-05T13:00:29.264Z,0.40
2022-11-05T13:03:09.829Z,0.63
2022-11-05T13:05:43.998Z,0.73
2022-11-05T13:08:17.328Z,1.50
2022-11-05T13:10:52.127Z,0.80
2022-11-05T13:13:28.863Z,0.40
2022-11-05T13:16:01.691Z,0.80
2022-11-05T13:18:34.402Z,1.20
2022-11-05T13:21:09.197Z,0.40
2022-11-05T13:23:43.042Z,0.60
2022-11-05T13:26:19.984Z,0.50
2022-11-05T13:28:55.201Z,0.50
2022-11-05T13:31:50.752Z,0.40
2022-11-05T13:34:24.315Z,0.97
2022-11-05T13:37:15.353Z,1.20
2022-11-05T13:39:53.099Z,1.23
2022-11-05T13:42:53.330Z,0.37
2022-11-05T13:46:05.945Z,0.50
2022-11-05T13:49:00.088Z,0.40
2022-11-05T13:51:46.643Z,0.37
2022-11-05T13:54:46.261Z,0.40
2022-11-05T13:57:51.700Z,0.50
2022-11-05T14:00:22.093Z,0.70
2022-11-05T14:02:53.673Z,0.50
2022-11-05T14:05:28.587Z,1.07
2022-11-05T14:07:59.013Z,1.00
2022-11-05T14:10:38.467Z,1.00
2022-11-05T14:13:25.000Z,1.33
2022-11-05T14:16:07.165Z,0.67
2022-11-05T14:18:58.527Z,0.40
2022-11-05T14:22:14.672Z,1.40
2022-11-05T14:24:45.860Z,0.77
2022-11-05T14:27:58.324Z,0.93
2022-11-05T14:34:02.436Z,1.67
2022-11-05T14:36:46.845Z,1.20
2022-11-05T14:39:35.108Z,1.70
2022-11-05T14:42:11.762Z,1.77
2022-11-05T14:45:22.236Z,1.70
2022-11-05T14:51:41.685Z,1.60
2022-11-05T14:54:34.269Z,2.20
2022-11-05T14:57:05.640Z,1.90
2022-11-05T14:59:53.240Z,2.23
2022-11-05T15:02:25.479Z,1.80
2022-11-05T15:05:35.261Z,3.33
2022-11-05T15:08:35.308Z,3.60
2022-11-05T15:11:23.321Z,2.60
2022-11-05T15:14:04.209Z,3.17
2022-11-05T15:16:37.298Z,3.53
2022-11-05T15:19:06.661Z,3.00
2022-11-05T15:21:37.985Z,3.80
2022-11-05T15:24:11.063Z,2.90
2022-11-05T15:26:49.333Z,4.27
2022-11-05T15:29:20.197Z,3.87
2022-11-05T15:31:56.255Z,3.67
2022-11-05T15:34:29.204Z,3.20
2022-11-05T15:43:42.698Z,5.50
2022-11-05T15:46:32.527Z,6.27
2022-11-05T15:49:04.428Z,4.83
2022-11-05T15:51:33.387Z,6.00
2022-11-05T15:57:40.276Z,4.87
2022-11-05T16:00:18.185Z,5.93
2022-11-05T16:02:58.105Z,6.30
2022-11-05T16:05:28.556Z,6.50
2022-11-05T16:08:00.893Z,6.60
2022-11-05T16:10:51.910Z,6.03
2022-11-05T16:13:36.987Z,6.30
2022-11-05T16:16:08.025Z,7.33
2022-11-05T16:18:39.035Z,6.77
2022-11-05T16:21:09.374Z,5.27
2022-11-05T16:29:37.991Z,5.60
2022-11-05T16:32:16.685Z,6.07
2022-11-05T16:34:56.998Z,6.50
2022-11-05T16:37:46.337Z,7.20
2022-11-05T16:40:27.262Z,6.53
2022-11-05T16:42:56.357Z,5.73
2022-11-05T16:45:29.443Z,6.23
2022-11-05T16:47:58.299Z,5.40
2022-11-05T16:50:28.918Z,5.90
2022-11-05T16:53:04.970Z,6.33
2022-11-05T16:55:52.466Z,6.77
2022-11-05T16:58:23.500Z,5.67
2022-11-05T17:00:57.622Z,6.57
2022-11-05T17:21:04.337Z,6.90
2022-11-05T17:24:31.662Z,5.77
2022-11-05T17:27:04.283Z,5.70
2022-11-05T17:29:40.057Z,5.57
2022-11-05T17:32:17.067Z,4.53
2022-11-05T17:34:48.270Z,5.70
2022-11-05T17:37:34.124Z,5.53
2022-11-05T17:40:13.867Z,6.17
2022-11-05T17:42:43.000Z,5.87
2022-11-05T17:45:17.606Z,6.03
2022-11-05T17:47:54.887Z,6.40
2022-11-05T18:02:39.532Z,7.23
2022-11-05T18:05:09.188Z,9.10
2022-11-05T18:07:38.287Z,8.93
2022-11-05T18:10:10.986Z,6.70
2022-11-05T18:15:49.537Z,8.33
2022-11-05T18:18:24.304Z,7.40
2022-11-05T18:20:53.972Z,7.27
2022-11-05T18:40:44.567Z,59.80
2022-11-05T18:43:15.135Z,19.50
2022-11-05T18:45:45.835Z,23.20
2022-11-05T18:54:08.880Z,38.07
2022-11-05T18:56:45.688Z,25.50
2022-11-05T18:59:35.972Z,22.97
2022-11-05T19:02:03.087Z,34.60
2022-11-05T19:04:31.625Z,32.80
2022-11-05T19:07:04.817Z,20.87
2022-11-05T19:09:34.073Z,17.57
2022-11-05T19:12:04.578Z,19.43
2022-11-05T19:14:33.117Z,24.17
2022-11-05T19:17:02.044Z,17.77
2022-11-05T19:19:30.385Z,19.87
2022-11-05T19:21:59.236Z,17.40
2022-11-05T19:24:27.492Z,15.30
2022-11-05T19:26:55.600Z,12.93
2022-11-05T19:29:25.875Z,13.87
2022-11-05T19:31:59.114Z,12.70
2022-11-05T19:34:46.460Z,14.57
2022-11-05T19:37:14.910Z,12.77
2022-11-05T19:39:44.396Z,11.67
2022-11-05T19:42:13.023Z,11.30
2022-11-05T19:44:43.397Z,11.00
2022-11-05T19:47:12.572Z,11.03
2022-11-05T19:49:51.891Z,13.80
2022-11-05T19:52:20.370Z,11.17
2022-11-05T19:54:49.248Z,16.90
2022-11-05T19:57:17.850Z,19.07
2022-11-05T19:59:47.694Z,18.83
2022-11-05T20:02:17.560Z,15.07
2022-11-05T20:04:46.467Z,18.43
2022-11-05T20:07:15.241Z,16.67
2022-11-05T20:09:43.929Z,14.63
2022-11-05T20:12:13.077Z,15.27
2022-11-05T20:14:42.267Z,15.63
2022-11-05T20:17:20.727Z,12.33
2022-11-05T20:20:14.360Z,10.40
2022-11-05T20:22:44.250Z,10.93
2022-11-05T20:25:15.785Z,10.77
2022-11-05T20:27:48.864Z,10.80
2022-11-05T20:30:24.516Z,14.73
2022-11-05T20:32:57.335Z,15.63
2022-11-05T20:35:26.092Z,17.60
2022-11-05T20:37:58.617Z,14.77
2022-11-05T20:40:27.359Z,17.17
2022-11-05T20:42:56.243Z,22.97
2022-11-05T20:45:25.138Z,22.23
2022-11-05T20:47:53.655Z,21.50
2022-11-05T20:50:23.448Z,25.90
2022-11-05T20:52:53.177Z,26.50
2022-11-05T20:58:02.632Z,22.73
2022-11-05T21:00:31.922Z,18.73
2022-11-05T21:03:00.377Z,32.40
2022-11-05T21:05:35.350Z,24.33
2022-11-05T21:08:04.496Z,26.47
2022-11-05T21:10:33.119Z,26.10
2022-11-05T21:13:01.850Z,20.50
2022-11-05T21:15:31.159Z,18.37
2022-11-05T21:18:00.090Z,20.20
2022-11-05T21:20:31.309Z,27.40
2022-11-05T21:23:00.481Z,20.20
2022-11-05T21:25:28.839Z,19.80
2022-11-05T21:27:57.708Z,23.00
2022-11-05T21:30:26.781Z,25.07
2022-11-05T21:32:55.057Z,19.90
2022-11-05T21:35:23.471Z,17.50
2022-11-05T21:37:53.490Z,17.20
2022-11-05T21:40:22.441Z,20.13
2022-11-05T21:42:50.914Z,18.17
2022-11-05T21:45:19.311Z,21.20
2022-11-05T21:47:47.839Z,24.17
2022-11-05T21:50:21.653Z,28.10
2022-11-05T21:53:07.729Z,20.40
2022-11-05T21:55:55.143Z,17.37
2022-11-05T21:58:43.452Z,20.77
2022-11-05T22:01:14.340Z,20.23
2022-11-05T22:03:45.677Z,17.97
2022-11-05T22:06:14.398Z,22.23
2022-11-05T22:08:47.199Z,23.03
2022-11-05T22:11:17.056Z,19.50
2022-11-05T22:13:48.592Z,15.47
2022-11-05T22:16:16.828Z,16.60
2022-11-05T22:18:45.536Z,16.13
2022-11-05T22:21:18.352Z,18.80
2022-11-05T22:23:46.665Z,15.43
2022-11-05T22:26:16.632Z,21.20
2022-11-05T22:28:44.592Z,17.20
2022-11-05T22:31:16.057Z,17.50
2022-11-05T22:33:44.342Z,14.33
2022-11-05T22:36:13.288Z,11.97
2022-11-05T22:38:41.377Z,9.90
2022-11-05T22:41:10.634Z,13.37
2022-11-05T22:43:40.267Z,14.93
2022-11-05T22:46:11.564Z,11.00
2022-11-05T22:48:41.148Z,7.73
2022-11-05T22:51:11.749Z,12.30
2022-11-05T22:53:40.705Z,10.63
2022-11-05T22:56:11.669Z,9.30
2022-11-05T22:58:42.160Z,7.37
2022-11-05T23:01:12.571Z,6.93
2022-11-05T23:03:43.257Z,7.27
2022-11-05T23:06:37.432Z,8.10
2022-11-05T23:09:30.497Z,9.83
2022-11-05T23:11:59.722Z,10.30
2022-11-05T23:14:30.224Z,7.37
2022-11-05T23:17:15.702Z,6.90
2022-11-05T23:20:02.923Z,21.73
2022-11-05T23:22:50.150Z,7.73
2022-11-05T23:25:24.874Z,7.00
2022-11-05T23:27:57.338Z,9.10
2022-11-05T23:30:29.530Z,9.60
2022-11-05T23:32:57.513Z,8.47
2022-11-05T23:35:39.807Z,7.43
2022-11-05T23:38:25.878Z,10.00
2022-11-05T23:41:11.775Z,8.27
2022-11-05T23:43:57.350Z,8.43
2022-11-05T23:46:44.613Z,12.53
2022-11-05T23:49:16.504Z,9.00
2022-11-05T23:51:45.084Z,7.10
2022-11-05T23:54:13.487Z,7.30
2022-11-05T23:56:42.007Z,11.27
2022-11-05T23:59:11.497Z,8.80
